sensor_id;sensor_type;location;lat;lon;timestamp;temperature;humidity
9371;DHT22;4725;48.384;8.984;2024-01-16T00:00:42;-2.90;99.90
9371;DHT22;4725;48.384;8.984;2024-01-16T00:03:11;-2.90;99.90
9371;DHT22;4725;48.384;8.984;2024-01-16T00:05:36;-2.90;99.90
9371;DHT22;4725;48.384;8.984;2024-01-16T00:08:04;-2.90;99.90
9371;DHT22;4725;48.384;8.984;2024-01-16T00:10:30;-2.90;99.90
9371;DHT22;4725;48.384;8.984;2024-01-16T00:12:57;-2.90;99.90
9371;DHT22;4725;48.384;8.984;2024-01-16T00:15:24;-2.90;99.90
9371;DHT22;4725;48.384;8.984;2024-01-16T00:17:51;-2.90;99.90
9371;DHT22;4725;48.384;8.984;2024-01-16T00:20:20;-2.90;99.90
9371;DHT22;4725;48.384;8.984;2024-01-16T00:25:16;-2.90;99.90
9371;DHT22;4725;48.384;8.984;2024-01-16T00:27:45;-3.00;99.90
9371;DHT22;4725;48.384;8.984;2024-01-16T00:30:13;-3.00;99.90
9371;DHT22;4725;48.384;8.984;2024-01-16T00:32:40;-3.00;99.90
9371;DHT22;4725;48.384;8.984;2024-01-16T00:35:07;-3.00;99.90
9371;DHT22;4725;48.384;8.984;2024-01-16T00:37:36;-3.10;99.90
9371;DHT22;4725;48.384;8.984;2024-01-16T00:40:04;-3.10;99.90
9371;DHT22;4725;48.384;8.984;2024-01-16T00:44:57;-3.00;99.90
9371;DHT22;4725;48.384;8.984;2024-01-16T00:49:51;-3.00;99.90
9371;DHT22;4725;48.384;8.984;2024-01-16T00:52:18;-3.00;99.90
9371;DHT22;4725;48.384;8.984;2024-01-16T00:54:46;-3.00;99.90
9371;DHT22;4725;48.384;8.984;2024-01-16T00:57:13;-3.00;99.90
9371;DHT22;4725;48.384;8.984;2024-01-16T00:59:44;-3.10;99.90
9371;DHT22;4725;48.384;8.984;2024-01-16T01:02:11;-3.10;99.90
9371;DHT22;4725;48.384;8.984;2024-01-16T01:04:38;-3.10;99.90
9371;DHT22;4725;48.384;8.984;2024-01-16T01:07:06;-3.10;99.90
9371;DHT22;4725;48.384;8.984;2024-01-16T01:09:33;-3.10;99.90
9371;DHT22;4725;48.384;8.984;2024-01-16T01:12:02;-3.00;99.90
9371;DHT22;4725;48.384;8.984;2024-01-16T01:14:29;-3.00;99.90
9371;DHT22;4725;48.384;8.984;2024-01-16T01:16:56;-3.10;99.90
9371;DHT22;4725;48.384;8.984;2024-01-16T01:19:22;-3.00;99.90
9371;DHT22;4725;48.384;8.984;2024-01-16T01:21:49;-3.00;99.90
9371;DHT22;4725;48.384;8.984;2024-01-16T01:24:16;-3.00;99.90
9371;DHT22;4725;48.384;8.984;2024-01-16T01:26:43;-3.00;99.90
9371;DHT22;4725;48.384;8.984;2024-01-16T01:29:11;-3.10;99.90
9371;DHT22;4725;48.384;8.984;2024-01-16T01:31:38;-3.10;99.90
9371;DHT22;4725;48.384;8.984;2024-01-16T01:34:05;-3.20;99.90
9371;DHT22;4725;48.384;8.984;2024-01-16T01:36:33;-3.20;99.90
9371;DHT22;4725;48.384;8.984;2024-01-16T01:38:59;-3.20;99.90
9371;DHT22;4725;48.384;8.984;2024-01-16T01:41:26;-3.20;99.90
9371;DHT22;4725;48.384;8.984;2024-01-16T01:43:53;-3.20;99.90
9371;DHT22;4725;48.384;8.984;2024-01-16T01:46:21;-3.20;99.90
9371;DHT22;4725;48.384;8.984;2024-01-16T01:48:49;-3.20;99.90
9371;DHT22;4725;48.384;8.984;2024-01-16T01:51:18;-3.30;99.90
9371;DHT22;4725;48.384;8.984;2024-01-16T01:53:46;-3.40;99.90
9371;DHT22;4725;48.384;8.984;2024-01-16T01:56:17;-3.40;99.90
9371;DHT22;4725;48.384;8.984;2024-01-16T01:58:47;-3.50;99.90
9371;DHT22;4725;48.384;8.984;2024-01-16T02:01:15;-3.60;99.90
9371;DHT22;4725;48.384;8.984;2024-01-16T02:03:45;-3.60;99.90
9371;DHT22;4725;48.384;8.984;2024-01-16T02:06:13;-3.60;99.90
9371;DHT22;4725;48.384;8.984;2024-01-16T02:08:41;-3.60;99.90
9371;DHT22;4725;48.384;8.984;2024-01-16T02:11:07;-3.60;99.90
9371;DHT22;4725;48.384;8.984;2024-01-16T02:13:34;-3.60;99.90
9371;DHT22;4725;48.384;8.984;2024-01-16T02:16:01;-3.60;99.90
9371;DHT22;4725;48.384;8.984;2024-01-16T02:18:28;-3.60;99.90
9371;DHT22;4725;48.384;8.984;2024-01-16T02:21:00;-3.60;99.90
9371;DHT22;4725;48.384;8.984;2024-01-16T02:23:29;-3.70;99.90
9371;DHT22;4725;48.384;8.984;2024-01-16T02:28:24;-3.70;99.90
9371;DHT22;4725;48.384;8.984;2024-01-16T02:30:51;-3.80;99.90
9371;DHT22;4725;48.384;8.984;2024-01-16T02:33:16;-3.80;99.90
9371;DHT22;4725;48.384;8.984;2024-01-16T02:35:43;-3.90;99.90
9371;DHT22;4725;48.384;8.984;2024-01-16T02:38:10;-4.00;99.90
9371;DHT22;4725;48.384;8.984;2024-01-16T02:40:38;-4.00;99.90
9371;DHT22;4725;48.384;8.984;2024-01-16T02:43:06;-3.90;99.90
9371;DHT22;4725;48.384;8.984;2024-01-16T02:45:33;-4.00;99.90
9371;DHT22;4725;48.384;8.984;2024-01-16T02:48:00;-4.00;99.90
9371;DHT22;4725;48.384;8.984;2024-01-16T02:50:29;-4.00;99.90
9371;DHT22;4725;48.384;8.984;2024-01-16T02:52:55;-4.20;99.90
9371;DHT22;4725;48.384;8.984;2024-01-16T02:55:22;-4.20;99.90
9371;DHT22;4725;48.384;8.984;2024-01-16T02:57:51;-4.20;99.90
9371;DHT22;4725;48.384;8.984;2024-01-16T03:00:18;-4.40;99.90
9371;DHT22;4725;48.384;8.984;2024-01-16T03:02:45;-4.40;99.90
9371;DHT22;4725;48.384;8.984;2024-01-16T03:05:12;-4.50;99.90
9371;DHT22;4725;48.384;8.984;2024-01-16T03:07:38;-4.60;99.90
9371;DHT22;4725;48.384;8.984;2024-01-16T03:10:06;-4.80;99.90
9371;DHT22;4725;48.384;8.984;2024-01-16T03:12:33;-5.30;99.90
9371;DHT22;4725;48.384;8.984;2024-01-16T03:17:28;-6.20;99.90
9371;DHT22;4725;48.384;8.984;2024-01-16T03:19:55;-6.50;99.90
9371;DHT22;4725;48.384;8.984;2024-01-16T03:22:22;-6.70;99.90
9371;DHT22;4725;48.384;8.984;2024-01-16T03:24:49;-6.70;99.90
9371;DHT22;4725;48.384;8.984;2024-01-16T03:27:16;-6.50;99.90
9371;DHT22;4725;48.384;8.984;2024-01-16T03:29:43;-6.40;99.90
9371;DHT22;4725;48.384;8.984;2024-01-16T03:32:11;-6.30;99.90
9371;DHT22;4725;48.384;8.984;2024-01-16T03:34:38;-6.30;99.90
9371;DHT22;4725;48.384;8.984;2024-01-16T03:37:05;-6.10;99.90
9371;DHT22;4725;48.384;8.984;2024-01-16T03:39:32;-6.10;99.90
9371;DHT22;4725;48.384;8.984;2024-01-16T03:41:59;-5.90;99.90
9371;DHT22;4725;48.384;8.984;2024-01-16T03:44:26;-5.80;99.90
9371;DHT22;4725;48.384;8.984;2024-01-16T03:46:53;-5.90;99.90
9371;DHT22;4725;48.384;8.984;2024-01-16T03:49:21;-6.00;99.90
9371;DHT22;4725;48.384;8.984;2024-01-16T03:51:49;-6.20;99.90
9371;DHT22;4725;48.384;8.984;2024-01-16T03:54:16;-6.40;99.90
9371;DHT22;4725;48.384;8.984;2024-01-16T03:56:43;-6.90;99.90
9371;DHT22;4725;48.384;8.984;2024-01-16T03:59:09;-7.30;99.90
9371;DHT22;4725;48.384;8.984;2024-01-16T04:01:36;-7.60;99.90
9371;DHT22;4725;48.384;8.984;2024-01-16T04:04:03;-7.60;99.90
9371;DHT22;4725;48.384;8.984;2024-01-16T04:06:33;-7.70;99.90
9371;DHT22;4725;48.384;8.984;2024-01-16T04:09:00;-7.90;99.90
9371;DHT22;4725;48.384;8.984;2024-01-16T04:11:27;-7.90;99.90
9371;DHT22;4725;48.384;8.984;2024-01-16T04:13:54;-7.90;99.90
9371;DHT22;4725;48.384;8.984;2024-01-16T04:16:21;-8.00;99.90
9371;DHT22;4725;48.384;8.984;2024-01-16T04:18:47;-8.10;99.90
9371;DHT22;4725;48.384;8.984;2024-01-16T04:21:14;-8.10;99.90
9371;DHT22;4725;48.384;8.984;2024-01-16T04:23:43;-8.00;99.90
9371;DHT22;4725;48.384;8.984;2024-01-16T04:26:10;-8.00;99.90
9371;DHT22;4725;48.384;8.984;2024-01-16T04:28:36;-8.30;99.90
9371;DHT22;4725;48.384;8.984;2024-01-16T04:31:04;-8.80;99.90
9371;DHT22;4725;48.384;8.984;2024-01-16T04:33:31;-8.70;99.90
9371;DHT22;4725;48.384;8.984;2024-01-16T04:35:58;-8.90;99.90
9371;DHT22;4725;48.384;8.984;2024-01-16T04:38:24;-8.90;99.90
9371;DHT22;4725;48.384;8.984;2024-01-16T04:40:53;-8.50;99.90
9371;DHT22;4725;48.384;8.984;2024-01-16T04:43:19;-8.50;99.90
9371;DHT22;4725;48.384;8.984;2024-01-16T04:45:46;-8.30;99.90
9371;DHT22;4725;48.384;8.984;2024-01-16T04:48:13;-8.30;99.90
9371;DHT22;4725;48.384;8.984;2024-01-16T04:50:40;-8.30;99.90
9371;DHT22;4725;48.384;8.984;2024-01-16T04:53:07;-8.30;99.90
9371;DHT22;4725;48.384;8.984;2024-01-16T04:55:33;-8.20;99.90
9371;DHT22;4725;48.384;8.984;2024-01-16T04:58:02;-8.10;99.90
9371;DHT22;4725;48.384;8.984;2024-01-16T05:00:29;-8.00;99.90
9371;DHT22;4725;48.384;8.984;2024-01-16T05:02:56;-8.00;99.90
9371;DHT22;4725;48.384;8.984;2024-01-16T05:05:23;-5.60;99.90
9371;DHT22;4725;48.384;8.984;2024-01-16T05:07:50;-7.90;99.90
9371;DHT22;4725;48.384;8.984;2024-01-16T05:10:16;-7.90;99.90
9371;DHT22;4725;48.384;8.984;2024-01-16T05:12:43;-8.40;99.90
9371;DHT22;4725;48.384;8.984;2024-01-16T05:15:11;-8.40;99.90
9371;DHT22;4725;48.384;8.984;2024-01-16T05:17:38;-8.40;99.90
9371;DHT22;4725;48.384;8.984;2024-01-16T05:20:06;-8.80;99.90
9371;DHT22;4725;48.384;8.984;2024-01-16T05:22:34;-8.80;99.90
9371;DHT22;4725;48.384;8.984;2024-01-16T05:25:01;-5.80;99.90
9371;DHT22;4725;48.384;8.984;2024-01-16T05:27:28;-8.70;99.90
9371;DHT22;4725;48.384;8.984;2024-01-16T05:29:55;-8.70;99.90
9371;DHT22;4725;48.384;8.984;2024-01-16T05:32:23;-8.70;99.90
9371;DHT22;4725;48.384;8.984;2024-01-16T05:37:17;-8.80;99.90
9371;DHT22;4725;48.384;8.984;2024-01-16T05:39:44;-8.80;99.90
9371;DHT22;4725;48.384;8.984;2024-01-16T05:42:11;-8.90;99.90
9371;DHT22;4725;48.384;8.984;2024-01-16T05:44:38;-9.00;99.90
9371;DHT22;4725;48.384;8.984;2024-01-16T05:47:05;-9.40;99.90
9371;DHT22;4725;48.384;8.984;2024-01-16T05:49:33;-9.50;99.90
9371;DHT22;4725;48.384;8.984;2024-01-16T05:52:01;-9.50;99.90
9371;DHT22;4725;48.384;8.984;2024-01-16T05:54:28;-9.50;99.90
9371;DHT22;4725;48.384;8.984;2024-01-16T05:56:55;-9.30;99.90
9371;DHT22;4725;48.384;8.984;2024-01-16T05:59:22;-9.20;99.90
9371;DHT22;4725;48.384;8.984;2024-01-16T06:01:49;-8.90;99.90
9371;DHT22;4725;48.384;8.984;2024-01-16T06:04:16;-8.90;99.90
9371;DHT22;4725;48.384;8.984;2024-01-16T06:06:44;-8.80;99.90
9371;DHT22;4725;48.384;8.984;2024-01-16T06:09:13;-7.40;99.90
9371;DHT22;4725;48.384;8.984;2024-01-16T06:11:41;-8.80;99.90
9371;DHT22;4725;48.384;8.984;2024-01-16T06:14:08;-8.80;99.90
9371;DHT22;4725;48.384;8.984;2024-01-16T06:16:35;-8.80;99.90
9371;DHT22;4725;48.384;8.984;2024-01-16T06:19:02;-8.90;99.90
9371;DHT22;4725;48.384;8.984;2024-01-16T06:21:30;-8.80;99.90
9371;DHT22;4725;48.384;8.984;2024-01-16T06:23:58;-8.70;99.90
9371;DHT22;4725;48.384;8.984;2024-01-16T06:26:25;-8.60;99.90
9371;DHT22;4725;48.384;8.984;2024-01-16T06:28:52;-8.60;99.90
9371;DHT22;4725;48.384;8.984;2024-01-16T06:31:19;-8.50;99.90
9371;DHT22;4725;48.384;8.984;2024-01-16T06:33:45;-8.50;99.90
9371;DHT22;4725;48.384;8.984;2024-01-16T06:36:12;-8.50;99.90
9371;DHT22;4725;48.384;8.984;2024-01-16T06:38:39;-8.50;99.90
9371;DHT22;4725;48.384;8.984;2024-01-16T06:41:07;-8.40;99.90
9371;DHT22;4725;48.384;8.984;2024-01-16T06:43:34;-8.40;99.90
9371;DHT22;4725;48.384;8.984;2024-01-16T06:46:01;-8.30;99.90
9371;DHT22;4725;48.384;8.984;2024-01-16T06:48:28;-8.30;99.90
9371;DHT22;4725;48.384;8.984;2024-01-16T06:50:55;-8.30;99.90
9371;DHT22;4725;48.384;8.984;2024-01-16T06:53:22;-8.30;99.90
9371;DHT22;4725;48.384;8.984;2024-01-16T06:55:49;-8.20;99.90
9371;DHT22;4725;48.384;8.984;2024-01-16T06:58:17;-8.20;99.90
9371;DHT22;4725;48.384;8.984;2024-01-16T07:03:12;-8.10;99.90
9371;DHT22;4725;48.384;8.984;2024-01-16T07:05:39;-8.10;99.90
9371;DHT22;4725;48.384;8.984;2024-01-16T07:08:07;-8.10;99.90
9371;DHT22;4725;48.384;8.984;2024-01-16T07:10:34;-8.10;99.90
9371;DHT22;4725;48.384;8.984;2024-01-16T07:13:01;-8.10;99.90
9371;DHT22;4725;48.384;8.984;2024-01-16T07:15:29;-8.10;99.90
9371;DHT22;4725;48.384;8.984;2024-01-16T07:17:56;-8.20;99.90
9371;DHT22;4725;48.384;8.984;2024-01-16T07:20:23;-8.10;99.90
9371;DHT22;4725;48.384;8.984;2024-01-16T07:22:50;-8.00;99.90
9371;DHT22;4725;48.384;8.984;2024-01-16T07:25:17;-7.90;99.90
9371;DHT22;4725;48.384;8.984;2024-01-16T07:27:44;-7.80;99.90
9371;DHT22;4725;48.384;8.984;2024-01-16T07:30:14;-7.70;99.90
9371;DHT22;4725;48.384;8.984;2024-01-16T07:32:42;-7.70;99.90
9371;DHT22;4725;48.384;8.984;2024-01-16T07:35:09;-7.60;99.90
9371;DHT22;4725;48.384;8.984;2024-01-16T07:37:36;-7.60;99.90
9371;DHT22;4725;48.384;8.984;2024-01-16T07:40:04;-7.40;99.90
9371;DHT22;4725;48.384;8.984;2024-01-16T07:42:32;-7.40;99.90
9371;DHT22;4725;48.384;8.984;2024-01-16T07:45:00;-7.20;99.90
9371;DHT22;4725;48.384;8.984;2024-01-16T07:47:29;-7.10;99.90
9371;DHT22;4725;48.384;8.984;2024-01-16T07:49:58;-7.10;99.90
9371;DHT22;4725;48.384;8.984;2024-01-16T07:52:24;-7.00;99.90
9371;DHT22;4725;48.384;8.984;2024-01-16T07:54:50;-7.00;99.90
9371;DHT22;4725;48.384;8.984;2024-01-16T07:57:17;-6.90;99.90
9371;DHT22;4725;48.384;8.984;2024-01-16T07:59:44;-6.80;99.90
9371;DHT22;4725;48.384;8.984;2024-01-16T08:02:11;-6.70;99.90
9371;DHT22;4725;48.384;8.984;2024-01-16T08:04:38;-6.50;99.90
9371;DHT22;4725;48.384;8.984;2024-01-16T08:07:06;-6.40;99.90
9371;DHT22;4725;48.384;8.984;2024-01-16T08:09:33;-6.20;99.90
9371;DHT22;4725;48.384;8.984;2024-01-16T08:14:28;-5.90;99.90
9371;DHT22;4725;48.384;8.984;2024-01-16T08:16:55;-5.80;99.90
9371;DHT22;4725;48.384;8.984;2024-01-16T08:19:22;-5.70;99.90
9371;DHT22;4725;48.384;8.984;2024-01-16T08:21:49;-5.50;99.90
9371;DHT22;4725;48.384;8.984;2024-01-16T08:24:17;-5.50;99.90
9371;DHT22;4725;48.384;8.984;2024-01-16T08:26:44;-5.40;99.90
9371;DHT22;4725;48.384;8.984;2024-01-16T08:29:11;-5.20;99.90
9371;DHT22;4725;48.384;8.984;2024-01-16T08:31:37;-5.20;99.90
9371;DHT22;4725;48.384;8.984;2024-01-16T08:34:04;-5.20;99.90
9371;DHT22;4725;48.384;8.984;2024-01-16T08:36:31;-5.10;99.90
9371;DHT22;4725;48.384;8.984;2024-01-16T08:38:58;-5.10;99.90
9371;DHT22;4725;48.384;8.984;2024-01-16T08:41:26;-5.30;99.90
9371;DHT22;4725;48.384;8.984;2024-01-16T08:43:53;-5.20;99.90
9371;DHT22;4725;48.384;8.984;2024-01-16T08:46:20;-4.90;99.90
9371;DHT22;4725;48.384;8.984;2024-01-16T08:48:47;-4.70;99.90
9371;DHT22;4725;48.384;8.984;2024-01-16T08:51:13;-4.60;99.90
9371;DHT22;4725;48.384;8.984;2024-01-16T08:53:40;-4.40;99.90
9371;DHT22;4725;48.384;8.984;2024-01-16T08:56:07;-4.40;99.90
9371;DHT22;4725;48.384;8.984;2024-01-16T08:58:35;-4.20;99.90
9371;DHT22;4725;48.384;8.984;2024-01-16T09:01:03;-4.10;99.90
9371;DHT22;4725;48.384;8.984;2024-01-16T09:03:32;-4.20;99.90
9371;DHT22;4725;48.384;8.984;2024-01-16T09:05:59;-4.00;99.90
9371;DHT22;4725;48.384;8.984;2024-01-16T09:08:26;-3.80;99.90
9371;DHT22;4725;48.384;8.984;2024-01-16T09:10:54;-3.40;99.90
9371;DHT22;4725;48.384;8.984;2024-01-16T09:13:21;-3.40;99.90
9371;DHT22;4725;48.384;8.984;2024-01-16T09:15:50;-3.10;99.90
9371;DHT22;4725;48.384;8.984;2024-01-16T09:18:17;-2.80;99.90
9371;DHT22;4725;48.384;8.984;2024-01-16T09:20:44;-2.90;99.90
9371;DHT22;4725;48.384;8.984;2024-01-16T09:23:10;-3.10;99.90
9371;DHT22;4725;48.384;8.984;2024-01-16T09:25:38;-3.60;99.90
9371;DHT22;4725;48.384;8.984;2024-01-16T09:28:05;-3.70;99.90
9371;DHT22;4725;48.384;8.984;2024-01-16T09:30:32;-3.70;99.90
9371;DHT22;4725;48.384;8.984;2024-01-16T09:33:00;-3.50;99.90
9371;DHT22;4725;48.384;8.984;2024-01-16T09:35:28;-3.40;99.90
9371;DHT22;4725;48.384;8.984;2024-01-16T09:37:55;-3.30;99.90
9371;DHT22;4725;48.384;8.984;2024-01-16T09:40:22;-3.10;99.90
9371;DHT22;4725;48.384;8.984;2024-01-16T09:42:49;-2.80;99.90
9371;DHT22;4725;48.384;8.984;2024-01-16T09:45:19;-2.40;99.90
9371;DHT22;4725;48.384;8.984;2024-01-16T09:47:47;-1.90;99.90
9371;DHT22;4725;48.384;8.984;2024-01-16T09:50:18;-1.80;99.90
9371;DHT22;4725;48.384;8.984;2024-01-16T09:52:45;-1.40;99.90
9371;DHT22;4725;48.384;8.984;2024-01-16T09:55:13;-1.00;99.90
9371;DHT22;4725;48.384;8.984;2024-01-16T09:57:41;-1.10;99.90
9371;DHT22;4725;48.384;8.984;2024-01-16T10:00:11;-1.10;99.90
9371;DHT22;4725;48.384;8.984;2024-01-16T10:02:39;-0.70;99.90
9371;DHT22;4725;48.384;8.984;2024-01-16T10:05:07;-0.60;99.90
9371;DHT22;4725;48.384;8.984;2024-01-16T10:07:37;-0.50;99.90
9371;DHT22;4725;48.384;8.984;2024-01-16T10:10:05;0.00;99.90
9371;DHT22;4725;48.384;8.984;2024-01-16T10:12:32;0.10;99.90
9371;DHT22;4725;48.384;8.984;2024-01-16T10:14:59;0.00;99.90
9371;DHT22;4725;48.384;8.984;2024-01-16T10:17:35;0.10;99.90
9371;DHT22;4725;48.384;8.984;2024-01-16T10:20:04;0.10;99.90
9371;DHT22;4725;48.384;8.984;2024-01-16T10:22:31;0.10;99.90
9371;DHT22;4725;48.384;8.984;2024-01-16T10:25:06;-0.50;99.90
9371;DHT22;4725;48.384;8.984;2024-01-16T10:27:34;-0.50;99.90
9371;DHT22;4725;48.384;8.984;2024-01-16T10:30:02;-1.40;99.90
9371;DHT22;4725;48.384;8.984;2024-01-16T10:32:31;0.40;99.90
9371;DHT22;4725;48.384;8.984;2024-01-16T10:35:02;0.60;99.90
9371;DHT22;4725;48.384;8.984;2024-01-16T10:37:30;1.00;99.90
9371;DHT22;4725;48.384;8.984;2024-01-16T10:39:57;1.20;99.90
9371;DHT22;4725;48.384;8.984;2024-01-16T10:42:25;1.60;99.90
9371;DHT22;4725;48.384;8.984;2024-01-16T10:44:54;1.70;99.90
9371;DHT22;4725;48.384;8.984;2024-01-16T10:47:22;1.60;99.90
9371;DHT22;4725;48.384;8.984;2024-01-16T10:49:49;1.90;99.90
9371;DHT22;4725;48.384;8.984;2024-01-16T10:52:17;1.70;99.90
9371;DHT22;4725;48.384;8.984;2024-01-16T10:54:46;1.70;99.90
9371;DHT22;4725;48.384;8.984;2024-01-16T10:57:16;2.40;99.90
9371;DHT22;4725;48.384;8.984;2024-01-16T10:59:50;2.40;99.90
9371;DHT22;4725;48.384;8.984;2024-01-16T11:02:24;2.90;99.90
9371;DHT22;4725;48.384;8.984;2024-01-16T11:04:57;2.80;99.90
9371;DHT22;4725;48.384;8.984;2024-01-16T11:07:24;2.60;99.90
9371;DHT22;4725;48.384;8.984;2024-01-16T11:09:52;2.60;99.90
9371;DHT22;4725;48.384;8.984;2024-01-16T11:12:20;2.40;99.90
9371;DHT22;4725;48.384;8.984;2024-01-16T11:14:51;2.30;99.90
9371;DHT22;4725;48.384;8.984;2024-01-16T11:17:19;3.00;99.90
9371;DHT22;4725;48.384;8.984;2024-01-16T11:19:47;3.60;99.90
9371;DHT22;4725;48.384;8.984;2024-01-16T11:22:15;3.90;99.90
9371;DHT22;4725;48.384;8.984;2024-01-16T11:24:42;4.20;99.90
9371;DHT22;4725;48.384;8.984;2024-01-16T11:27:22;4.90;99.90
9371;DHT22;4725;48.384;8.984;2024-01-16T11:29:51;5.90;98.50
9371;DHT22;4725;48.384;8.984;2024-01-16T11:32:33;6.20;97.40
9371;DHT22;4725;48.384;8.984;2024-01-16T11:35:00;6.20;96.30
9371;DHT22;4725;48.384;8.984;2024-01-16T11:37:28;6.20;95.60
9371;DHT22;4725;48.384;8.984;2024-01-16T11:40:23;5.80;96.00
9371;DHT22;4725;48.384;8.984;2024-01-16T11:42:52;5.40;95.40
9371;DHT22;4725;48.384;8.984;2024-01-16T11:45:49;5.30;95.30
9371;DHT22;4725;48.384;8.984;2024-01-16T11:48:19;4.50;96.60
9371;DHT22;4725;48.384;8.984;2024-01-16T11:50:47;4.40;95.80
9371;DHT22;4725;48.384;8.984;2024-01-16T11:53:33;4.40;97.00
9371;DHT22;4725;48.384;8.984;2024-01-16T11:56:13;5.20;96.80
9371;DHT22;4725;48.384;8.984;2024-01-16T11:58:48;5.60;96.10
9371;DHT22;4725;48.384;8.984;2024-01-16T12:01:17;6.90;93.90
9371;DHT22;4725;48.384;8.984;2024-01-16T12:03:46;6.90;94.70
9371;DHT22;4725;48.384;8.984;2024-01-16T12:06:16;6.70;94.90
9371;DHT22;4725;48.384;8.984;2024-01-16T12:08:43;6.90;94.10
9371;DHT22;4725;48.384;8.984;2024-01-16T12:11:10;7.10;92.60
9371;DHT22;4725;48.384;8.984;2024-01-16T12:13:37;6.90;92.60
9371;DHT22;4725;48.384;8.984;2024-01-16T12:16:04;6.30;92.70
9371;DHT22;4725;48.384;8.984;2024-01-16T12:18:32;6.70;93.50
9371;DHT22;4725;48.384;8.984;2024-01-16T12:21:08;6.90;92.80
9371;DHT22;4725;48.384;8.984;2024-01-16T12:23:35;6.90;92.90
9371;DHT22;4725;48.384;8.984;2024-01-16T12:26:03;7.50;92.10
9371;DHT22;4725;48.384;8.984;2024-01-16T12:28:29;8.30;92.20
9371;DHT22;4725;48.384;8.984;2024-01-16T12:30:56;8.10;90.00
9371;DHT22;4725;48.384;8.984;2024-01-16T12:33:23;8.00;90.30
9371;DHT22;4725;48.384;8.984;2024-01-16T12:36:00;7.30;92.60
9371;DHT22;4725;48.384;8.984;2024-01-16T12:38:28;6.80;92.40
9371;DHT22;4725;48.384;8.984;2024-01-16T12:40:55;9.00;91.30
9371;DHT22;4725;48.384;8.984;2024-01-16T12:43:22;9.00;91.50
9371;DHT22;4725;48.384;8.984;2024-01-16T12:45:55;9.30;90.00
9371;DHT22;4725;48.384;8.984;2024-01-16T12:48:23;9.10;88.20
9371;DHT22;4725;48.384;8.984;2024-01-16T12:50:52;8.90;88.10
9371;DHT22;4725;48.384;8.984;2024-01-16T12:53:25;8.40;88.80
9371;DHT22;4725;48.384;8.984;2024-01-16T12:55:58;7.10;89.60
9371;DHT22;4725;48.384;8.984;2024-01-16T12:58:28;5.20;91.60
9371;DHT22;4725;48.384;8.984;2024-01-16T13:01:24;6.90;91.00
9371;DHT22;4725;48.384;8.984;2024-01-16T13:03:51;6.90;91.20
9371;DHT22;4725;48.384;8.984;2024-01-16T13:06:19;7.30;92.00
9371;DHT22;4725;48.384;8.984;2024-01-16T13:08:46;7.20;92.80
9371;DHT22;4725;48.384;8.984;2024-01-16T13:11:14;7.20;93.10
9371;DHT22;4725;48.384;8.984;2024-01-16T13:13:45;7.90;92.50
9371;DHT22;4725;48.384;8.984;2024-01-16T13:16:12;8.40;91.00
9371;DHT22;4725;48.384;8.984;2024-01-16T13:18:40;8.30;91.50
9371;DHT22;4725;48.384;8.984;2024-01-16T13:21:07;7.60;92.50
9371;DHT22;4725;48.384;8.984;2024-01-16T13:23:35;7.70;92.40
9371;DHT22;4725;48.384;8.984;2024-01-16T13:26:02;8.00;91.50
9371;DHT22;4725;48.384;8.984;2024-01-16T13:28:30;7.90;91.70
9371;DHT22;4725;48.384;8.984;2024-01-16T13:30:57;8.20;90.90
9371;DHT22;4725;48.384;8.984;2024-01-16T13:33:24;8.20;91.20
9371;DHT22;4725;48.384;8.984;2024-01-16T13:35:53;6.70;92.40
9371;DHT22;4725;48.384;8.984;2024-01-16T13:38:21;6.60;92.00
9371;DHT22;4725;48.384;8.984;2024-01-16T13:40:48;5.70;92.90
9371;DHT22;4725;48.384;8.984;2024-01-16T13:43:16;5.90;94.30
9371;DHT22;4725;48.384;8.984;2024-01-16T13:45:42;6.30;92.20
9371;DHT22;4725;48.384;8.984;2024-01-16T13:48:09;7.30;92.30
9371;DHT22;4725;48.384;8.984;2024-01-16T13:50:36;7.60;92.60
9371;DHT22;4725;48.384;8.984;2024-01-16T13:53:05;6.80;92.10
9371;DHT22;4725;48.384;8.984;2024-01-16T13:55:32;7.50;92.30
9371;DHT22;4725;48.384;8.984;2024-01-16T13:57:59;6.50;92.50
9371;DHT22;4725;48.384;8.984;2024-01-16T14:00:26;7.60;92.10
9371;DHT22;4725;48.384;8.984;2024-01-16T14:02:53;8.00;89.90
9371;DHT22;4725;48.384;8.984;2024-01-16T14:05:21;8.10;91.10
9371;DHT22;4725;48.384;8.984;2024-01-16T14:07:49;8.20;90.70
9371;DHT22;4725;48.384;8.984;2024-01-16T14:10:19;7.70;90.20
9371;DHT22;4725;48.384;8.984;2024-01-16T14:12:48;8.10;91.10
9371;DHT22;4725;48.384;8.984;2024-01-16T14:15:17;7.40;91.10
9371;DHT22;4725;48.384;8.984;2024-01-16T14:17:46;7.30;91.30
9371;DHT22;4725;48.384;8.984;2024-01-16T14:20:14;7.60;90.90
9371;DHT22;4725;48.384;8.984;2024-01-16T14:22:42;7.50;90.80
9371;DHT22;4725;48.384;8.984;2024-01-16T14:25:09;8.00;90.10
9371;DHT22;4725;48.384;8.984;2024-01-16T14:27:42;8.00;90.10
9371;DHT22;4725;48.384;8.984;2024-01-16T14:30:10;8.10;90.60
9371;DHT22;4725;48.384;8.984;2024-01-16T14:32:39;8.50;91.30
9371;DHT22;4725;48.384;8.984;2024-01-16T14:35:06;7.80;90.20
9371;DHT22;4725;48.384;8.984;2024-01-16T14:37:35;7.90;90.80
9371;DHT22;4725;48.384;8.984;2024-01-16T14:40:03;7.40;89.20
9371;DHT22;4725;48.384;8.984;2024-01-16T14:42:39;7.40;89.80
9371;DHT22;4725;48.384;8.984;2024-01-16T14:45:07;5.90;91.40
9371;DHT22;4725;48.384;8.984;2024-01-16T14:47:35;4.50;92.50
9371;DHT22;4725;48.384;8.984;2024-01-16T14:50:02;3.10;94.00
9371;DHT22;4725;48.384;8.984;2024-01-16T14:52:29;1.40;95.80
9371;DHT22;4725;48.384;8.984;2024-01-16T14:54:57;0.80;96.80
9371;DHT22;4725;48.384;8.984;2024-01-16T14:57:24;0.20;98.10
9371;DHT22;4725;48.384;8.984;2024-01-16T14:59:53;-0.80;99.90
9371;DHT22;4725;48.384;8.984;2024-01-16T15:02:20;-0.90;99.90
9371;DHT22;4725;48.384;8.984;2024-01-16T15:04:48;-1.10;99.90
9371;DHT22;4725;48.384;8.984;2024-01-16T15:07:15;-1.40;99.90
9371;DHT22;4725;48.384;8.984;2024-01-16T15:12:09;-1.70;99.90
9371;DHT22;4725;48.384;8.984;2024-01-16T15:14:36;-1.60;99.90
9371;DHT22;4725;48.384;8.984;2024-01-16T15:17:04;-2.00;99.90
9371;DHT22;4725;48.384;8.984;2024-01-16T15:19:32;-2.10;99.90
9371;DHT22;4725;48.384;8.984;2024-01-16T15:21:59;-2.30;99.90
9371;DHT22;4725;48.384;8.984;2024-01-16T15:24:26;-2.30;99.90
9371;DHT22;4725;48.384;8.984;2024-01-16T15:26:54;-2.40;99.90
9371;DHT22;4725;48.384;8.984;2024-01-16T15:29:22;-2.60;99.90
9371;DHT22;4725;48.384;8.984;2024-01-16T15:31:50;-2.80;99.90
9371;DHT22;4725;48.384;8.984;2024-01-16T15:34:19;-3.00;99.90
9371;DHT22;4725;48.384;8.984;2024-01-16T15:36:46;-2.90;99.90
9371;DHT22;4725;48.384;8.984;2024-01-16T15:39:13;-3.10;99.90
9371;DHT22;4725;48.384;8.984;2024-01-16T15:41:42;-3.20;99.90
9371;DHT22;4725;48.384;8.984;2024-01-16T15:44:10;-3.30;99.90
9371;DHT22;4725;48.384;8.984;2024-01-16T15:46:55;-3.80;99.90
9371;DHT22;4725;48.384;8.984;2024-01-16T15:49:23;-4.90;99.90
9371;DHT22;4725;48.384;8.984;2024-01-16T15:51:51;-4.00;99.90
9371;DHT22;4725;48.384;8.984;2024-01-16T15:54:19;-4.40;99.90
9371;DHT22;4725;48.384;8.984;2024-01-16T15:56:46;-4.60;99.90
9371;DHT22;4725;48.384;8.984;2024-01-16T15:59:13;-5.20;99.90
9371;DHT22;4725;48.384;8.984;2024-01-16T16:01:41;-5.40;99.90
9371;DHT22;4725;48.384;8.984;2024-01-16T16:04:08;-5.40;99.90
9371;DHT22;4725;48.384;8.984;2024-01-16T16:06:38;-5.30;99.90
9371;DHT22;4725;48.384;8.984;2024-01-16T16:14:02;-5.40;99.90
9371;DHT22;4725;48.384;8.984;2024-01-16T16:16:30;-5.40;99.90
9371;DHT22;4725;48.384;8.984;2024-01-16T16:18:57;-5.30;99.90
9371;DHT22;4725;48.384;8.984;2024-01-16T16:21:24;-5.40;99.90
9371;DHT22;4725;48.384;8.984;2024-01-16T16:23:53;-5.40;99.90
9371;DHT22;4725;48.384;8.984;2024-01-16T16:26:29;-5.90;99.90
9371;DHT22;4725;48.384;8.984;2024-01-16T16:28:58;-6.20;99.90
9371;DHT22;4725;48.384;8.984;2024-01-16T16:31:26;-6.50;99.90
9371;DHT22;4725;48.384;8.984;2024-01-16T16:33:53;-6.60;99.90
9371;DHT22;4725;48.384;8.984;2024-01-16T16:36:20;-6.70;99.90
9371;DHT22;4725;48.384;8.984;2024-01-16T16:38:46;-6.80;99.90